createdAt,value
2023-03-25T00:03:07.065Z,24.68
2023-03-25T00:07:07.114Z,24.66
2023-03-25T00:11:07.219Z,24.66
2023-03-25T00:15:07.330Z,24.62
2023-03-25T00:19:07.419Z,24.60
2023-03-25T00:23:07.542Z,24.62
2023-03-25T00:27:07.645Z,24.62
2023-03-25T00:31:07.784Z,24.64
2023-03-25T00:35:07.853Z,24.62
2023-03-25T00:39:07.994Z,24.61
2023-03-25T00:43:08.088Z,24.60
2023-03-25T00:47:08.201Z,24.54
2023-03-25T00:51:08.327Z,24.52
2023-03-25T00:55:08.454Z,24.55
2023-03-25T00:59:08.563Z,24.54
2023-03-25T01:03:08.828Z,24.51
2023-03-25T01:07:08.797Z,24.49
2023-03-25T01:11:09.004Z,24.50
2023-03-25T01:15:09.074Z,24.50
2023-03-25T01:19:09.188Z,24.49
2023-03-25T01:23:09.356Z,24.52
2023-03-25T01:27:09.447Z,24.51
2023-03-25T01:31:09.614Z,24.50
2023-03-25T01:35:09.712Z,24.44
2023-03-25T01:39:09.821Z,24.46
2023-03-25T01:43:09.973Z,24.44
2023-03-25T01:47:10.114Z,24.46
2023-03-25T01:51:10.301Z,24.46
2023-03-25T01:55:10.456Z,24.46
2023-03-25T01:59:10.631Z,24.52
2023-03-25T02:03:10.752Z,24.46
2023-03-25T03:19:13.422Z,24.49
2023-03-25T03:23:13.579Z,24.47
2023-03-25T03:35:13.845Z,24.49
2023-03-25T04:03:14.773Z,24.41
2023-03-25T04:07:14.639Z,24.28
2023-03-25T04:11:14.615Z,24.30
2023-03-25T04:15:14.565Z,24.26
2023-03-25T04:19:14.516Z,24.28
2023-03-25T04:23:14.482Z,24.25
2023-03-25T04:27:14.448Z,24.25
2023-03-25T04:31:14.413Z,24.25
2023-03-25T04:35:14.378Z,24.21
2023-03-25T04:39:14.477Z,24.19
2023-03-25T04:43:14.421Z,24.15
2023-03-25T04:47:14.393Z,24.15
2023-03-25T04:51:14.333Z,24.12
2023-03-25T04:55:14.285Z,24.07
2023-03-25T04:59:14.250Z,24.01
2023-03-25T05:03:14.230Z,24.00
2023-03-25T05:07:14.175Z,24.00
2023-03-25T05:11:14.158Z,23.94
2023-03-25T05:15:14.126Z,23.91
2023-03-25T05:19:14.081Z,23.90
2023-03-25T05:23:14.024Z,23.90
2023-03-25T05:27:14.198Z,23.86
2023-03-25T05:31:14.355Z,23.88
2023-03-25T05:35:14.566Z,23.82
2023-03-25T05:39:14.733Z,23.81
2023-03-25T05:43:14.819Z,23.85
2023-03-25T05:47:14.947Z,23.82
2023-03-25T05:51:15.165Z,23.78
2023-03-25T05:55:15.355Z,23.78
2023-03-25T05:59:15.479Z,23.75
2023-03-25T06:03:15.792Z,23.74
2023-03-25T06:07:15.917Z,23.75
2023-03-25T06:11:16.136Z,23.76
2023-03-25T06:15:16.303Z,23.71
2023-03-25T06:19:16.481Z,23.77
2023-03-25T06:23:16.457Z,23.71
2023-03-25T06:27:16.424Z,23.69
2023-03-25T06:31:16.445Z,23.69
2023-03-25T06:35:16.328Z,23.73
2023-03-25T06:39:16.292Z,23.68
2023-03-25T06:43:16.264Z,23.67
2023-03-25T06:47:16.216Z,23.74
2023-03-25T06:51:16.179Z,23.71
2023-03-25T06:55:16.155Z,23.74
2023-03-25T06:59:16.099Z,23.73
2023-03-25T07:03:16.287Z,23.77
2023-03-25T07:07:16.258Z,23.74
2023-03-25T07:11:16.243Z,23.74
2023-03-25T07:15:16.175Z,23.75
2023-03-25T07:19:16.151Z,23.73
2023-03-25T07:23:16.098Z,23.75
2023-03-25T07:27:16.073Z,23.73
2023-03-25T07:31:16.070Z,23.74
2023-03-25T07:35:15.988Z,23.75
2023-03-25T07:39:15.941Z,23.75
2023-03-25T07:43:15.989Z,23.74
2023-03-25T07:47:15.943Z,23.75
2023-03-25T07:51:15.927Z,23.76
2023-03-25T07:55:15.870Z,23.62
2023-03-25T07:59:15.845Z,23.59
2023-03-25T08:03:15.945Z,23.62
2023-03-25T08:07:15.750Z,23.64
2023-03-25T08:11:15.705Z,23.67
2023-03-25T08:15:15.670Z,23.65
2023-03-25T08:19:15.643Z,23.55
2023-03-25T08:23:15.940Z,23.57
2023-03-25T08:27:16.780Z,23.54
2023-03-25T08:31:15.704Z,23.38
2023-03-25T08:35:15.670Z,23.42
2023-03-25T08:39:15.615Z,23.34
2023-03-25T08:43:15.564Z,23.23
2023-03-25T08:47:15.544Z,23.12
2023-03-25T08:51:15.535Z,22.95
2023-03-25T08:55:15.469Z,22.88
2023-03-25T08:59:15.434Z,22.79
2023-03-25T09:03:15.404Z,22.73
2023-03-25T09:07:15.354Z,22.70
2023-03-25T09:11:19.693Z,22.57
2023-03-25T09:15:16.279Z,22.53
2023-03-25T09:19:15.240Z,22.45
2023-03-25T09:23:15.210Z,22.42
2023-03-25T09:27:15.181Z,22.29
2023-03-25T09:31:15.441Z,22.26
2023-03-25T09:35:15.383Z,22.17
2023-03-25T09:39:15.461Z,22.12
2023-03-25T09:43:15.549Z,22.11
2023-03-25T09:47:15.977Z,22.00
2023-03-25T09:51:15.614Z,21.95
2023-03-25T09:55:15.659Z,21.92
2023-03-25T09:59:15.695Z,21.87
2023-03-25T10:03:15.795Z,21.87
2023-03-25T10:07:15.725Z,21.82
2023-03-25T10:11:15.711Z,21.75
2023-03-25T10:15:15.672Z,21.73
2023-03-25T10:19:15.617Z,21.73
2023-03-25T10:23:15.583Z,21.67
2023-03-25T10:27:15.542Z,21.65
2023-03-25T10:31:15.531Z,21.59
2023-03-25T10:35:15.467Z,21.58
2023-03-25T10:39:15.428Z,21.50
2023-03-25T10:43:15.381Z,21.42
2023-03-25T10:47:15.372Z,21.39
2023-03-25T10:51:15.332Z,21.32
2023-03-25T10:55:15.280Z,21.24
2023-03-25T10:59:16.588Z,21.25
2023-03-25T11:03:15.258Z,21.13
2023-03-25T11:07:15.182Z,21.15
2023-03-25T11:11:15.144Z,21.08
2023-03-25T11:15:15.099Z,21.05
2023-03-25T11:19:15.061Z,21.02
2023-03-25T11:23:15.033Z,20.96
2023-03-25T11:27:14.984Z,20.88
2023-03-25T11:31:15.035Z,20.89
2023-03-25T11:35:14.920Z,20.78
2023-03-25T11:39:14.893Z,20.76
2023-03-25T11:43:14.844Z,20.76
2023-03-25T11:47:14.805Z,20.77
2023-03-25T11:51:14.767Z,20.73
2023-03-25T11:55:14.733Z,20.75
2023-03-25T11:59:14.713Z,20.66
2023-03-25T12:03:14.715Z,20.74
2023-03-25T12:07:14.649Z,20.71
2023-03-25T12:11:14.601Z,20.62
2023-03-25T12:15:14.556Z,20.62
2023-03-25T12:19:14.515Z,20.52
2023-03-25T12:23:14.481Z,20.45
2023-03-25T12:27:14.466Z,20.37
2023-03-25T12:31:14.449Z,20.34
2023-03-25T12:35:14.379Z,20.31
2023-03-25T12:39:14.340Z,20.26
2023-03-25T12:43:14.320Z,20.21
2023-03-25T12:47:14.296Z,20.18
2023-03-25T12:51:14.239Z,20.13
2023-03-25T12:55:14.200Z,20.13
2023-03-25T12:59:14.183Z,20.07
2023-03-25T13:03:14.358Z,20.08
2023-03-25T13:07:14.301Z,19.99
2023-03-25T13:11:14.268Z,19.97
2023-03-25T13:15:15.132Z,19.90
2023-03-25T13:19:14.194Z,19.95
2023-03-25T13:23:14.148Z,19.87
2023-03-25T13:27:14.188Z,19.84
2023-03-25T13:31:14.074Z,19.82
2023-03-25T13:35:14.052Z,19.73
2023-03-25T13:39:14.019Z,19.79
2023-03-25T13:43:14.017Z,19.79
2023-03-25T13:47:14.063Z,19.73
2023-03-25T13:51:14.255Z,19.62
2023-03-25T13:55:14.466Z,19.65
2023-03-25T13:59:14.416Z,19.71
2023-03-25T14:03:14.394Z,19.66
2023-03-25T14:07:14.331Z,19.60
2023-03-25T14:11:14.292Z,19.54
2023-03-25T14:15:14.274Z,19.53
2023-03-25T14:19:14.237Z,19.55
2023-03-25T14:23:14.209Z,19.45
2023-03-25T14:27:14.171Z,19.45
2023-03-25T14:31:14.163Z,19.45
2023-03-25T14:35:14.092Z,19.39
2023-03-25T14:39:14.233Z,19.33
2023-03-25T14:43:14.194Z,19.21
2023-03-25T14:47:14.197Z,18.99
2023-03-25T14:51:14.150Z,19.10
2023-03-25T14:55:14.084Z,19.02
2023-03-25T14:59:14.037Z,18.55
2023-03-25T15:03:14.013Z,18.59
2023-03-25T15:07:13.982Z,18.29
2023-03-25T15:11:13.945Z,18.21
2023-03-25T15:15:13.900Z,18.05
2023-03-25T15:19:13.902Z,17.96
2023-03-25T15:23:14.101Z,17.90
2023-03-25T15:27:14.090Z,17.81
2023-03-25T15:31:14.066Z,17.65
2023-03-25T15:35:14.026Z,17.65
2023-03-25T15:39:13.987Z,17.70
2023-03-25T15:43:13.929Z,17.76
2023-03-25T15:47:13.907Z,17.77
2023-03-25T15:51:13.847Z,17.87
2023-03-25T15:55:13.821Z,17.99
2023-03-25T15:59:13.789Z,17.96
2023-03-25T16:03:13.915Z,18.01
2023-03-25T16:07:13.714Z,18.03
2023-03-25T16:11:13.687Z,17.98
2023-03-25T16:15:13.648Z,17.96
2023-03-25T16:19:13.629Z,17.96
2023-03-25T16:23:13.586Z,17.93
2023-03-25T16:27:13.563Z,17.96
2023-03-25T16:31:13.566Z,17.91
2023-03-25T16:35:13.462Z,17.99
2023-03-25T16:39:13.501Z,18.01
2023-03-25T16:43:13.405Z,17.97
2023-03-25T16:47:13.369Z,17.94
2023-03-25T16:51:13.324Z,17.97
2023-03-25T16:55:13.298Z,17.89
2023-03-25T16:59:13.294Z,17.91
2023-03-25T17:03:13.308Z,17.86
2023-03-25T17:07:13.183Z,17.83
2023-03-25T17:11:13.160Z,17.83
2023-03-25T17:15:13.095Z,17.78
2023-03-25T17:19:13.061Z,17.73
2023-03-25T17:23:13.036Z,17.75
2023-03-25T17:27:12.985Z,17.73
2023-03-25T17:31:13.024Z,17.75
2023-03-25T17:35:12.924Z,17.68
2023-03-25T17:39:12.881Z,17.70
2023-03-25T17:43:12.866Z,17.68
2023-03-25T17:47:12.830Z,17.70
2023-03-25T17:51:12.859Z,17.68
2023-03-25T17:55:12.966Z,17.65
2023-03-25T17:59:13.137Z,17.67
2023-03-25T18:03:13.192Z,17.63
2023-03-25T18:07:13.329Z,17.65
2023-03-25T18:11:13.480Z,17.59
2023-03-25T18:15:13.619Z,17.60
2023-03-25T18:19:13.799Z,17.55
2023-03-25T18:23:13.885Z,17.54
2023-03-25T18:27:14.001Z,17.60
2023-03-25T18:31:14.142Z,17.49
2023-03-25T18:35:14.250Z,17.54
2023-03-25T18:39:14.369Z,17.52
2023-03-25T18:43:14.513Z,17.49
2023-03-25T18:47:14.636Z,17.44
2023-03-25T18:51:14.781Z,17.46
2023-03-25T18:55:14.937Z,17.32
2023-03-25T18:59:15.074Z,17.38
2023-03-25T19:03:15.331Z,17.33
2023-03-25T19:07:15.358Z,17.22
2023-03-25T19:11:20.869Z,17.22
2023-03-25T19:15:16.479Z,17.31
2023-03-25T19:19:15.449Z,17.25
2023-03-25T19:23:15.392Z,17.19
2023-03-25T19:27:15.583Z,17.19
2023-03-25T19:31:15.900Z,17.27
2023-03-25T19:35:15.925Z,17.20
2023-03-25T19:39:16.107Z,17.22
2023-03-25T19:43:16.291Z,17.15
2023-03-25T19:47:16.480Z,17.17
2023-03-25T19:51:16.651Z,17.11
2023-03-25T19:55:16.827Z,17.06
2023-03-25T19:59:17.036Z,17.09
2023-03-25T20:03:17.273Z,17.07
2023-03-25T20:07:17.397Z,17.09
2023-03-25T20:11:17.612Z,17.01
2023-03-25T20:15:17.821Z,17.09
2023-03-25T20:19:18.007Z,17.04
2023-03-25T20:23:18.214Z,17.07
2023-03-25T20:27:18.426Z,17.04
2023-03-25T20:31:18.698Z,17.04
2023-03-25T20:35:18.884Z,17.10
2023-03-25T20:39:19.046Z,17.10
2023-03-25T20:43:19.000Z,17.09
2023-03-25T20:47:18.989Z,17.04
2023-03-25T20:51:18.930Z,17.13
2023-03-25T20:55:18.880Z,17.04
2023-03-25T20:59:18.864Z,17.10
2023-03-25T21:03:18.859Z,17.13
2023-03-25T21:07:18.766Z,17.10
2023-03-25T21:11:18.743Z,17.10
2023-03-25T21:15:18.712Z,17.10
2023-03-25T21:23:18.819Z,17.09
2023-03-25T21:27:18.779Z,17.06
2023-03-25T21:31:18.832Z,17.01
2023-03-25T21:35:18.721Z,17.05
2023-03-25T21:39:18.659Z,17.05
2023-03-25T21:43:18.681Z,17.01
2023-03-25T21:47:18.597Z,17.05
2023-03-25T21:51:18.564Z,17.10
2023-03-25T21:55:18.534Z,17.10
2023-03-25T21:59:18.474Z,17.13
2023-03-25T22:03:18.481Z,17.08
2023-03-25T22:07:18.407Z,17.05
2023-03-25T22:11:18.392Z,17.13
2023-03-25T22:15:18.324Z,17.12
2023-03-25T22:19:18.289Z,17.16
2023-03-25T22:23:18.256Z,17.13
2023-03-25T22:27:18.206Z,17.19
2023-03-25T22:31:18.291Z,17.13
2023-03-25T22:35:18.145Z,17.21
2023-03-25T22:39:18.147Z,17.18
2023-03-25T22:43:18.105Z,17.26
2023-03-25T22:47:18.044Z,17.24
2023-03-25T22:51:18.037Z,17.22
2023-03-25T22:55:17.977Z,17.25
2023-03-25T22:59:17.945Z,17.24
2023-03-25T23:03:17.976Z,17.27
2023-03-25T23:07:17.865Z,17.30
2023-03-25T23:11:17.859Z,17.29
2023-03-25T23:15:17.800Z,17.30
2023-03-25T23:19:17.779Z,17.32
2023-03-25T23:23:17.828Z,17.30
2023-03-25T23:27:18.071Z,17.33
2023-03-25T23:31:18.028Z,17.36
2023-03-25T23:35:18.016Z,17.38
2023-03-25T23:39:17.949Z,17.38
2023-03-25T23:43:17.924Z,17.40
2023-03-25T23:47:17.866Z,17.46
2023-03-25T23:51:17.835Z,17.41
2023-03-25T23:55:17.793Z,17.38
2023-03-25T23:59:17.785Z,17.46
